| time (UTC) | temp F | wind direction | speed MPH | gust MPH | rain 1hr in | rain 24hr in | rain mn in | humidity % | barometer mb |
| 20260508091556 | 41 | 200 | 2.0 | 5.0 | 0.00 | 0.00 | 0.00 | 92 | 1016.8 |
| 20260508090056 | 41 | 0 | 1.0 | 3.0 | 0.00 | 0.00 | 0.00 | 93 | 1016.6 |
| 20260508084556 | 41 | 0 | 0.0 | 1.0 | 0.00 | 0.00 | 0.00 | 92 | 1016.5 |
| 20260508083057 | 41 | 172 | 1.0 | 5.0 | 0.00 | 0.00 | 0.00 | 92 | 1016.4 |
| 20260508081615 | 41 | 215 | 3.0 | 5.0 | 0.00 | 0.00 | 0.00 | 92 | 1016.4 |
| 20260508080101 | 42 | 193 | 0.0 | 3.0 | 0.00 | 0.00 | 0.00 | 93 | 1016.3 |
| 20260508074556 | 42 | 177 | 0.0 | 0.0 | 0.00 | 0.00 | 0.00 | 93 | 1016.4 |
| 20260508073059 | 42 | 0 | 0.0 | 0.0 | 0.00 | 0.00 | 0.00 | 93 | 1016.1 |
| 20260508071602 | 42 | 0 | 0.0 | 0.0 | 0.00 | 0.00 | 0.00 | 93 | 1016.2 |
| 20260508070107 | 41 | 0 | 0.0 | 0.0 | 0.00 | 0.00 | 0.00 | 94 | 1016.2 |
| 20260508064557 | 41 | 0 | 0.0 | 0.0 | 0.00 | 0.00 | 0.00 | 93 | 1016.3 |
| 20260508063054 | 41 | 0 | 0.0 | 0.0 | 0.00 | 0.00 | 0.00 | 93 | 1016.4 |
| 20260508061556 | 41 | 0 | 0.0 | 0.0 | 0.00 | 0.00 | 0.00 | 93 | 1016.3 |
| 20260508060056 | 41 | 0 | 0.0 | 0.0 | 0.00 | 0.00 | 0.00 | 93 | 1016.4 |
| 20260508054558 | 41 | 0 | 0.0 | 0.0 | 0.00 | 0.00 | 0.00 | 93 | 1016.2 |
| 20260508053057 | 42 | 0 | 0.0 | 0.0 | 0.00 | 0.00 | 0.00 | 93 | 1016.1 |
| 20260508051551 | 41 | 0 | 0.0 | 0.0 | 0.00 | 0.00 | 0.00 | 92 | 1015.9 |
| 20260508050055 | 42 | 0 | 0.0 | 0.0 | 0.00 | 0.00 | 0.00 | 91 | 1015.7 |
| 20260508044603 | 43 | 0 | 0.0 | 0.0 | 0.00 | 0.00 | 0.00 | 91 | 1015.6 |
| 20260508043104 | 43 | 0 | 0.0 | 0.0 | 0.00 | 0.00 | 0.00 | 90 | 1015.6 |
| 20260508041555 | 44 | 0 | 0.0 | 0.0 | 0.00 | 0.00 | 0.00 | 90 | 1015.4 |
| 20260508040100 | 44 | 0 | 0.0 | 0.0 | 0.00 | 0.00 | 0.00 | 89 | 1015.3 |
| 20260508034556 | 45 | 0 | 0.0 | 0.0 | 0.00 | 0.00 | 0.00 | 89 | 1015.1 |
| 20260508033055 | 45 | 0 | 0.0 | 0.0 | 0.00 | 0.00 | 0.00 | 88 | 1015.1 |
| 20260508031552 | 46 | 0 | 0.0 | 0.0 | 0.00 | 0.00 | 0.00 | 87 | 1015.0 |
| 20260508030059 | 46 | 0 | 0.0 | 0.0 | 0.00 | 0.00 | 0.00 | 86 | 1014.8 |
| 20260508024553 | 46 | 0 | 0.0 | 0.0 | 0.00 | 0.02 | 0.00 | 85 | 1014.5 |
| 20260508023057 | 47 | 0 | 0.0 | 0.0 | 0.00 | 0.02 | 0.00 | 83 | 1014.4 |
| 20260508021556 | 47 | 0 | 0.0 | 0.0 | 0.00 | 0.02 | 0.00 | 82 | 1014.3 |
| 20260508020059 | 48 | 0 | 0.0 | 0.0 | 0.00 | 0.02 | 0.00 | 81 | 1014.0 |
| 20260508014558 | 48 | 0 | 0.0 | 0.0 | 0.00 | 0.02 | 0.00 | 79 | 1013.8 |
| 20260508013059 | 49 | 0 | 0.0 | 0.0 | 0.00 | 0.02 | 0.00 | 77 | 1013.5 |
| 20260508011607 | 50 | 0 | 0.0 | 0.0 | 0.00 | 0.02 | 0.00 | 74 | 1013.1 |
| 20260508010057 | 51 | 0 | 0.0 | 1.0 | 0.00 | 0.02 | 0.00 | 72 | 1012.9 |
| 20260508004558 | 53 | 349 | 0.0 | 1.0 | 0.00 | 0.03 | 0.00 | 68 | 1012.8 |
| 20260508003100 | 54 | 349 | 0.0 | 1.0 | 0.00 | 0.03 | 0.00 | 62 | 1012.5 |
| 20260508001557 | 57 | 0 | 0.0 | 4.0 | 0.00 | 0.03 | 0.00 | 56 | 1012.4 |
| 20260508000057 | 58 | 0 | 0.0 | 4.0 | 0.00 | 0.03 | 0.00 | 50 | 1012.3 |
| 20260507234605 | 59 | 126 | 1.0 | 5.0 | 0.00 | 0.06 | 0.00 | 51 | 1012.3 |
| 20260507233053 | 59 | 342 | 0.0 | 3.0 | 0.00 | 0.06 | 0.00 | 52 | 1012.2 |
| 20260507231557 | 61 | 136 | 2.0 | 4.0 | 0.00 | 0.06 | 0.00 | 47 | 1012.1 |
| 20260507230101 | 62 | 0 | 0.0 | 5.0 | 0.00 | 0.06 | 0.00 | 50 | 1011.8 |
| 20260507224556 | 62 | 129 | 2.0 | 8.0 | 0.00 | 0.07 | 0.00 | 48 | 1011.8 |
| 20260507223058 | 62 | 110 | 3.0 | 8.0 | 0.00 | 0.07 | 0.00 | 47 | 1011.6 |
| 20260507221603 | 62 | 89 | 2.0 | 9.0 | 0.00 | 0.07 | 0.00 | 48 | 1011.5 |
| 20260507220105 | 63 | 25 | 4.0 | 7.0 | 0.00 | 0.07 | 0.00 | 48 | 1011.3 |
| 20260507214604 | 63 | 238 | 1.0 | 7.0 | 0.00 | 0.07 | 0.00 | 49 | 1011.2 |
| 20260507213110 | 63 | 76 | 4.0 | 11.0 | 0.00 | 0.07 | 0.00 | 46 | 1011.2 |
| 20260507211557 | 62 | 148 | 2.0 | 6.0 | 0.00 | 0.07 | 0.00 | 48 | 1011.0 |
| 20260507210057 | 63 | 205 | 2.0 | 9.0 | 0.00 | 0.07 | 0.00 | 48 | 1010.8 |
| 20260507204556 | 63 | 40 | 6.0 | 15.0 | 0.00 | 0.07 | 0.00 | 47 | 1010.8 |
| 20260507203101 | 62 | 15 | 9.0 | 17.0 | 0.00 | 0.07 | 0.00 | 51 | 1011.0 |
| 20260507201601 | 61 | 300 | 3.0 | 12.0 | 0.00 | 0.07 | 0.00 | 51 | 1010.9 |
| 20260507200059 | 59 | 195 | 1.0 | 8.0 | 0.00 | 0.07 | 0.00 | 55 | 1011.4 |
| 20260507194555 | 60 | 235 | 1.0 | 7.0 | 0.00 | 0.07 | 0.00 | 56 | 1011.3 |
| 20260507193100 | 59 | 68 | 3.0 | 9.0 | 0.00 | 0.07 | 0.00 | 56 | 1011.5 |
| 20260507191558 | 59 | 223 | 3.0 | 16.0 | 0.00 | 0.07 | 0.00 | 57 | 1011.6 |
| 20260507190056 | 61 | 231 | 5.0 | 14.0 | 0.00 | 0.07 | 0.00 | 54 | 1011.6 |
| 20260507184555 | 60 | 226 | 8.0 | 13.0 | 0.00 | 0.07 | 0.00 | 53 | 1011.6 |
| 20260507183104 | 60 | 188 | 2.0 | 6.0 | 0.00 | 0.07 | 0.00 | 52 | 1011.7 |
| 20260507181600 | 60 | 205 | 4.0 | 9.0 | 0.00 | 0.07 | 0.00 | 52 | 1011.5 |
| 20260507180053 | 58 | 196 | 4.0 | 8.0 | 0.00 | 0.07 | 0.00 | 55 | 1011.9 |
| 20260507174605 | 58 | 230 | 5.0 | 9.0 | 0.00 | 0.07 | 0.00 | 55 | 1012.1 |
| 20260507173102 | 59 | 163 | 4.0 | 9.0 | 0.00 | 0.07 | 0.00 | 56 | 1011.9 |
| 20260507171611 | 59 | 53 | 1.0 | 5.0 | 0.00 | 0.07 | 0.00 | 55 | 1012.0 |
| 20260507170100 | 59 | 166 | 0.0 | 5.0 | 0.00 | 0.07 | 0.00 | 57 | 1012.4 |
| 20260507164612 | 58 | 72 | 2.0 | 6.0 | 0.00 | 0.09 | 0.00 | 61 | 1012.4 |
| 20260507163055 | 57 | 20 | 3.0 | 6.0 | 0.00 | 0.09 | 0.00 | 61 | 1012.4 |
| 20260507161603 | 56 | 111 | 3.0 | 8.0 | 0.00 | 0.09 | 0.00 | 62 | 1012.6 |
| 20260507160059 | 55 | 235 | 4.0 | 9.0 | 0.00 | 0.09 | 0.00 | 63 | 1012.6 |
| 20260507154553 | 55 | 212 | 3.0 | 9.0 | 0.00 | 0.09 | 0.00 | 64 | 1012.8 |
| 20260507153055 | 55 | 234 | 2.0 | 10.0 | 0.00 | 0.09 | 0.00 | 64 | 1012.8 |
| 20260507151553 | 54 | 212 | 4.0 | 10.0 | 0.00 | 0.09 | 0.00 | 68 | 1013.0 |
| 20260507150057 | 54 | 259 | 3.0 | 9.0 | 0.00 | 0.09 | 0.00 | 68 | 1013.2 |
| 20260507144555 | 53 | 141 | 4.0 | 10.0 | 0.00 | 0.11 | 0.00 | 70 | 1013.1 |
| 20260507143104 | 53 | 219 | 3.0 | 7.0 | 0.00 | 0.11 | 0.00 | 73 | 1013.3 |
| 20260507141555 | 52 | 184 | 4.0 | 8.0 | 0.00 | 0.11 | 0.00 | 73 | 1013.3 |
| 20260507140057 | 52 | 177 | 2.0 | 6.0 | 0.00 | 0.11 | 0.00 | 75 | 1013.5 |
| 20260507134558 | 52 | 184 | 3.0 | 7.0 | 0.00 | 0.11 | 0.00 | 76 | 1013.5 |
| 20260507133058 | 51 | 200 | 3.0 | 9.0 | 0.00 | 0.11 | 0.00 | 77 | 1013.6 |
| 20260507131602 | 51 | 0 | 2.0 | 6.0 | 0.00 | 0.11 | 0.00 | 77 | 1013.7 |
| 20260507130100 | 51 | 181 | 2.0 | 3.0 | 0.00 | 0.11 | 0.00 | 80 | 1013.7 |
| 20260507124555 | 51 | 222 | 1.0 | 5.0 | 0.00 | 0.19 | 0.00 | 80 | 1013.9 |
| 20260507123051 | 51 | 177 | 0.0 | 5.0 | 0.00 | 0.19 | 0.00 | 81 | 1013.9 |
| 20260507121553 | 51 | 272 | 2.0 | 5.0 | 0.00 | 0.19 | 0.00 | 81 | 1013.5 |
| 20260507120057 | 51 | 211 | 0.0 | 7.0 | 0.00 | 0.19 | 0.00 | 83 | 1013.7 |
| 20260507114553 | 51 | 248 | 3.0 | 6.0 | 0.00 | 0.21 | 0.00 | 82 | 1013.4 |
| 20260507113103 | 51 | 227 | 3.0 | 6.0 | 0.00 | 0.21 | 0.00 | 82 | 1013.1 |
| 20260507111559 | 51 | 105 | 0.0 | 9.0 | 0.00 | 0.21 | 0.00 | 83 | 1013.2 |
| 20260507110122 | 51 | 258 | 0.0 | 7.0 | 0.00 | 0.21 | 0.00 | 85 | 1012.9 |
| 20260507104554 | 51 | 185 | 0.0 | 1.0 | 0.00 | 0.32 | 0.00 | 88 | 1012.9 |
| 20260507103057 | 52 | 184 | 0.0 | 2.0 | 0.00 | 0.32 | 0.00 | 88 | 1012.9 |
| 20260507101559 | 52 | 125 | 1.0 | 4.0 | 0.00 | 0.32 | 0.00 | 83 | 1012.7 |
| 20260507100059 | 52 | 0 | 0.0 | 6.0 | 0.00 | 0.32 | 0.00 | 86 | 1012.4 |
| 20260507094609 | 52 | 203 | 1.0 | 3.0 | 0.00 | 0.32 | 0.00 | 88 | 1012.6 |
| 20260507093100 | 52 | 0 | 0.0 | 5.0 | 0.00 | 0.32 | 0.00 | 89 | 1012.5 |